TimeCST,TemperatureF,Dew PointF,Humidity,Sea Level PressureIn,VisibilityMPH,Wind Direction,Wind SpeedMPH,Gust SpeedMPH,PrecipitationIn,Events,Conditions,WindDirDegrees,DateUTC
12:15 AM,18.3,8.8,66,30.06,10.0,WNW,20.7,28.8,N/A,,Overcast,300,2013-12-05 06:15:00
12:35 AM,16.9,7.5,67,30.09,10.0,WNW,24.2,28.8,N/A,,Scattered Clouds,300,2013-12-05 06:35:00
12:55 AM,15.8,6.6,67,30.10,10.0,WNW,20.7,27.6,N/A,,Clear,300,2013-12-05 06:55:00
1:15 AM,15.3,5.7,66,30.10,10.0,NW,17.3,31.1,N/A,,Clear,310,2013-12-05 07:15:00
1:35 AM,14.5,5.0,66,30.12,10.0,NW,17.3,27.6,N/A,,Clear,310,2013-12-05 07:35:00
1:55 AM,14.0,4.8,67,30.13,10.0,NW,23.0,27.6,N/A,,Clear,310,2013-12-05 07:55:00
2:15 AM,13.1,4.1,67,30.15,10.0,NW,18.4,23.0,N/A,,Clear,310,2013-12-05 08:15:00
2:35 AM,12.7,4.1,68,30.16,10.0,NW,16.1,23.0,N/A,,Clear,310,2013-12-05 08:35:00
2:55 AM,12.6,3.4,67,30.17,10.0,WNW,21.9,31.1,N/A,,Clear,300,2013-12-05 08:55:00
3:15 AM,12.0,3.0,67,30.18,10.0,NW,15.0,27.6,N/A,,Clear,310,2013-12-05 09:15:00
3:35 AM,11.8,2.8,67,30.19,10.0,NW,12.7,24.2,N/A,,Clear,310,2013-12-05 09:35:00
3:55 AM,11.3,3.0,69,30.19,10.0,NW,13.8,-,N/A,,Clear,310,2013-12-05 09:55:00
4:15 AM,11.1,3.0,70,30.19,10.0,WNW,12.7,-,N/A,,Clear,300,2013-12-05 10:15:00
4:35 AM,10.8,2.7,70,30.19,10.0,NW,13.8,-,N/A,,Clear,310,2013-12-05 10:35:00
4:55 AM,10.4,2.5,70,30.20,10.0,WNW,15.0,19.6,N/A,,Clear,300,2013-12-05 10:55:00
5:15 AM,10.4,2.7,71,30.20,10.0,NW,15.0,23.0,N/A,,Clear,310,2013-12-05 11:15:00
5:35 AM,10.2,2.3,70,30.20,10.0,NW,15.0,-,N/A,,Clear,310,2013-12-05 11:35:00
5:55 AM,9.5,1.8,71,30.21,10.0,NW,11.5,18.4,N/A,,Clear,310,2013-12-05 11:55:00
6:15 AM,9.5,1.4,70,30.21,10.0,NW,11.5,-,N/A,,Clear,310,2013-12-05 12:15:00
6:35 AM,9.5,1.4,70,30.23,10.0,NW,11.5,17.3,N/A,,Clear,310,2013-12-05 12:35:00
6:55 AM,9.3,1.2,70,30.24,10.0,NW,10.4,-,N/A,,Clear,320,2013-12-05 12:55:00
7:15 AM,9.1,1.2,70,30.24,10.0,NW,10.4,-,N/A,,Clear,310,2013-12-05 13:15:00
7:35 AM,9.0,1.0,70,30.25,10.0,WNW,10.4,-,N/A,,Clear,300,2013-12-05 13:35:00
7:55 AM,8.8,0.9,70,30.26,10.0,NW,8.1,-,N/A,,Clear,320,2013-12-05 13:55:00
8:15 AM,9.3,1.0,69,30.26,10.0,NW,12.7,-,N/A,,Clear,320,2013-12-05 14:15:00
8:35 AM,9.9,0.7,66,30.27,10.0,NW,17.3,24.2,N/A,,Clear,320,2013-12-05 14:35:00
8:55 AM,10.0,0.3,65,30.26,10.0,NW,16.1,-,N/A,,Clear,310,2013-12-05 14:55:00
9:15 AM,10.8,0.5,63,30.28,10.0,NW,11.5,-,N/A,,Clear,310,2013-12-05 15:15:00
9:35 AM,10.6,-0.2,62,30.29,10.0,NW,13.8,-,N/A,,Clear,310,2013-12-05 15:35:00
9:55 AM,12.2,0.7,60,30.30,10.0,NW,18.4,-,N/A,,Clear,320,2013-12-05 15:55:00
10:15 AM,12.9,1.0,59,30.31,10.0,NW,16.1,-,N/A,,Clear,310,2013-12-05 16:15:00
10:35 AM,14.2,1.2,56,30.31,10.0,NNW,15.0,21.9,N/A,,Clear,330,2013-12-05 16:35:00
10:55 AM,14.5,0.9,55,30.32,10.0,NNW,13.8,-,N/A,,Clear,330,2013-12-05 16:55:00
11:15 AM,15.1,1.2,54,30.32,10.0,NNW,11.5,-,N/A,,Clear,330,2013-12-05 17:15:00
11:35 AM,15.4,0.9,53,30.31,10.0,NW,15.0,-,N/A,,Clear,320,2013-12-05 17:35:00
11:55 AM,15.6,0.9,52,30.30,10.0,NW,15.0,19.6,N/A,,Clear,320,2013-12-05 17:55:00
12:15 PM,15.8,0.5,51,30.30,10.0,NW,13.8,19.6,N/A,,Clear,320,2013-12-05 18:15:00
12:35 PM,16.0,0.5,51,30.29,10.0,NNW,13.8,17.3,N/A,,Clear,340,2013-12-05 18:35:00
12:55 PM,16.9,0.9,50,30.29,10.0,NNW,12.7,-,N/A,,Clear,340,2013-12-05 18:55:00
1:15 PM,17.4,0.3,47,30.29,10.0,NW,11.5,-,N/A,,Clear,310,2013-12-05 19:15:00
1:35 PM,18.1,0.3,46,30.28,10.0,NW,12.7,20.7,N/A,,Clear,310,2013-12-05 19:35:00
1:55 PM,18.7,0.1,44,30.27,10.0,NNW,12.7,-,N/A,,Clear,330,2013-12-05 19:55:00
2:15 PM,18.5,0.1,45,30.26,10.0,NNW,11.5,17.3,N/A,,Clear,330,2013-12-05 20:15:00
2:35 PM,18.3,-0.0,45,30.26,10.0,NW,11.5,-,N/A,,Clear,310,2013-12-05 20:35:00
2:55 PM,18.3,-0.9,43,30.26,10.0,NW,15.0,20.7,N/A,,Clear,320,2013-12-05 20:55:00
3:15 PM,18.0,-0.8,44,30.27,10.0,NNW,12.7,-,N/A,,Clear,340,2013-12-05 21:15:00
3:35 PM,18.0,-1.1,43,30.27,10.0,NW,12.7,-,N/A,,Clear,320,2013-12-05 21:35:00
3:55 PM,17.8,-1.5,43,30.29,10.0,NNW,11.5,-,N/A,,Clear,330,2013-12-05 21:55:00
4:15 PM,17.4,-1.8,43,30.30,10.0,NNW,13.8,-,N/A,,Clear,340,2013-12-05 22:15:00
4:35 PM,16.9,-1.7,44,30.32,10.0,NW,11.5,-,N/A,,Clear,320,2013-12-05 22:35:00
4:55 PM,15.6,-2.2,45,30.33,10.0,NW,6.9,-,N/A,,Clear,320,2013-12-05 22:55:00
5:15 PM,14.5,-2.2,48,30.34,10.0,NNW,5.8,-,N/A,,Clear,330,2013-12-05 23:15:00
5:35 PM,13.1,-1.5,52,30.34,10.0,NW,6.9,-,N/A,,Clear,320,2013-12-05 23:35:00
5:55 PM,13.6,-0.9,52,30.35,10.0,NNW,6.9,-,N/A,,Clear,330,2013-12-05 23:55:00
6:15 PM,13.1,-0.8,54,30.36,10.0,NNW,9.2,-,N/A,,Clear,330,2013-12-06 00:15:00
6:35 PM,13.1,-0.9,54,30.36,10.0,NNW,9.2,-,N/A,,Clear,330,2013-12-06 00:35:00
6:55 PM,13.1,-0.6,54,30.36,10.0,NNW,11.5,-,N/A,,Clear,340,2013-12-06 00:55:00
7:15 PM,13.1,-1.3,53,30.36,10.0,NNW,9.2,-,N/A,,Clear,330,2013-12-06 01:15:00
7:35 PM,13.1,-2.0,51,30.38,10.0,NW,12.7,18.4,N/A,,Clear,320,2013-12-06 01:35:00
7:55 PM,12.6,-2.2,52,30.37,10.0,NNW,10.4,-,N/A,,Clear,330,2013-12-06 01:55:00
8:15 PM,12.0,-2.0,53,30.37,10.0,NNW,12.7,-,N/A,,Clear,330,2013-12-06 02:15:00
8:35 PM,11.3,-2.2,55,30.39,10.0,NNW,9.2,-,N/A,,Clear,330,2013-12-06 02:35:00
8:55 PM,10.9,-2.2,56,30.40,10.0,NNW,11.5,-,N/A,,Clear,330,2013-12-06 02:55:00
9:15 PM,10.8,-2.2,56,30.39,10.0,NNW,10.4,-,N/A,,Clear,330,2013-12-06 03:15:00
9:35 PM,10.4,-2.2,57,30.41,10.0,NW,9.2,-,N/A,,Scattered Clouds,320,2013-12-06 03:35:00
9:55 PM,10.8,-2.2,56,30.41,10.0,NW,12.7,-,N/A,,Mostly Cloudy,320,2013-12-06 03:55:00
10:15 PM,10.9,-2.6,55,30.41,10.0,NNW,11.5,17.3,N/A,,Overcast,330,2013-12-06 04:15:00
10:35 PM,11.1,-3.3,52,30.42,10.0,NNW,12.7,19.6,N/A,,Overcast,330,2013-12-06 04:35:00
10:55 PM,11.1,-3.3,52,30.42,10.0,NNW,12.7,-,N/A,,Overcast,330,2013-12-06 04:55:00
11:15 PM,11.1,-3.5,52,30.43,10.0,NNW,12.7,-,N/A,,Overcast,330,2013-12-06 05:15:00
11:35 PM,11.1,-4.0,51,30.43,10.0,NNW,13.8,-,N/A,,Overcast,330,2013-12-06 05:35:00
11:55 PM,10.8,-4.0,52,30.43,10.0,NNW,15.0,-,N/A,,Mostly Cloudy,340,2013-12-06 05:55:00